createdAt,value
2023-08-27T00:04:14.887Z,18.00
2023-08-27T00:09:08.849Z,18.00
2023-08-27T00:14:04.517Z,18.00
2023-08-27T00:18:59.338Z,18.00
2023-08-27T00:23:52.626Z,18.00
2023-08-27T00:28:45.905Z,18.00
2023-08-27T00:33:39.210Z,18.10
2023-08-27T00:38:34.047Z,18.10
2023-08-27T00:43:27.396Z,18.00
2023-08-27T00:48:20.929Z,18.00
2023-08-27T00:53:14.878Z,18.00
2023-08-27T00:58:09.710Z,18.00
2023-08-27T01:03:03.269Z,18.00
2023-08-27T01:08:06.156Z,17.90
2023-08-27T01:13:06.359Z,17.90
2023-08-27T01:18:04.325Z,17.80
2023-08-27T01:22:59.401Z,17.70
2023-08-27T01:28:02.050Z,17.80
2023-08-27T01:33:04.976Z,17.50
2023-08-27T01:38:00.165Z,17.50
2023-08-27T01:42:53.563Z,17.50
2023-08-27T01:47:46.975Z,17.40
2023-08-27T01:52:40.318Z,17.50
2023-08-27T01:57:35.007Z,17.50
2023-08-27T02:02:29.120Z,17.40
2023-08-27T02:07:23.213Z,17.50
2023-08-27T02:12:16.695Z,17.50
2023-08-27T02:17:11.528Z,17.40
2023-08-27T02:22:04.861Z,17.40
2023-08-27T02:26:58.211Z,17.40
2023-08-27T02:31:51.554Z,17.50
2023-08-27T02:36:46.293Z,17.40
2023-08-27T02:41:40.140Z,17.40
2023-08-27T02:46:33.581Z,17.40
2023-08-27T02:51:26.925Z,17.20
2023-08-27T02:56:22.402Z,17.20
2023-08-27T03:01:19.979Z,17.20
2023-08-27T03:06:13.321Z,17.00
2023-08-27T03:11:06.660Z,16.90
2023-08-27T03:16:01.823Z,16.90
2023-08-27T03:20:55.161Z,16.80
2023-08-27T03:25:51.294Z,16.70
2023-08-27T03:30:44.893Z,16.70
2023-08-27T03:35:39.612Z,16.60
2023-08-27T03:40:32.951Z,16.50
2023-08-27T03:45:26.314Z,16.50
2023-08-27T03:50:19.653Z,16.40
2023-08-27T03:55:14.336Z,16.30
2023-08-27T04:00:10.100Z,16.30
2023-08-27T04:05:07.435Z,16.40
2023-08-27T04:10:00.789Z,16.40
2023-08-27T04:14:55.519Z,16.30
2023-08-27T04:19:49.235Z,16.20
2023-08-27T04:24:44.200Z,16.30
2023-08-27T04:29:37.480Z,16.40
2023-08-27T04:34:32.255Z,16.50
2023-08-27T04:39:27.524Z,16.60
2023-08-27T04:44:20.873Z,16.70
2023-08-27T04:49:14.341Z,16.80
2023-08-27T04:54:09.377Z,16.80
2023-08-27T04:59:02.731Z,16.70
2023-08-27T05:03:56.235Z,16.70
2023-08-27T05:08:49.757Z,16.60
2023-08-27T05:13:44.478Z,16.50
2023-08-27T05:18:37.777Z,16.50
2023-08-27T05:23:31.071Z,16.40
2023-08-27T05:28:24.470Z,16.20
2023-08-27T05:33:19.190Z,16.20
2023-08-27T05:38:12.543Z,16.10
2023-08-27T05:43:06.017Z,16.20
2023-08-27T05:47:59.819Z,16.20
2023-08-27T05:52:54.787Z,16.10
2023-08-27T05:57:49.329Z,16.00
2023-08-27T06:02:53.620Z,16.00
2023-08-27T06:07:46.935Z,16.00
2023-08-27T06:12:41.590Z,16.00
2023-08-27T06:17:34.913Z,15.90
2023-08-27T06:22:28.380Z,15.90
2023-08-27T06:27:21.679Z,16.00
2023-08-27T06:32:19.097Z,16.00
2023-08-27T06:37:13.254Z,16.10
2023-08-27T06:42:07.198Z,16.10
2023-08-27T06:47:00.535Z,16.10
2023-08-27T06:51:55.232Z,16.30
2023-08-27T06:56:48.532Z,16.50
2023-08-27T07:01:41.869Z,16.60
2023-08-27T07:06:35.942Z,16.60
2023-08-27T07:11:30.972Z,16.70
2023-08-27T07:16:24.344Z,16.70
2023-08-27T07:21:17.831Z,16.70
2023-08-27T07:26:11.166Z,16.50
2023-08-27T07:31:06.518Z,16.50
2023-08-27T07:35:59.864Z,16.50
2023-08-27T07:40:53.219Z,16.50
2023-08-27T07:45:46.570Z,16.60
2023-08-27T07:50:42.491Z,16.60
2023-08-27T07:55:37.883Z,16.70
2023-08-27T08:00:31.134Z,16.70
2023-08-27T08:05:24.469Z,16.70
2023-08-27T08:10:19.639Z,16.70
2023-08-27T08:15:13.190Z,16.70
2023-08-27T08:20:08.412Z,16.70
2023-08-27T08:25:01.962Z,16.70
2023-08-27T08:29:56.759Z,16.60
2023-08-27T08:34:50.013Z,16.60
2023-08-27T08:39:43.282Z,16.50
2023-08-27T08:44:45.457Z,16.70
2023-08-27T08:49:43.896Z,16.80
2023-08-27T08:54:42.856Z,16.90
2023-08-27T08:59:39.110Z,16.90
2023-08-27T09:04:35.671Z,16.90
2023-08-27T09:09:30.419Z,16.80
2023-08-27T09:14:24.798Z,16.80
2023-08-27T09:19:18.300Z,16.80
2023-08-27T09:24:11.811Z,16.80
2023-08-27T09:29:10.051Z,16.90
2023-08-27T09:34:03.477Z,16.90
2023-08-27T09:38:57.377Z,16.90
2023-08-27T09:43:54.826Z,16.90
2023-08-27T09:49:00.064Z,16.90
2023-08-27T09:53:53.495Z,16.80
2023-08-27T09:58:46.879Z,16.80
2023-08-27T10:03:40.958Z,16.80
2023-08-27T10:08:46.882Z,16.90
2023-08-27T10:13:44.313Z,17.00
2023-08-27T10:18:38.576Z,17.00
2023-08-27T10:23:37.841Z,17.00
2023-08-27T10:28:32.243Z,16.90
2023-08-27T10:33:31.067Z,16.90
2023-08-27T10:38:27.903Z,16.90
2023-08-27T10:43:24.886Z,16.90
2023-08-27T10:48:31.475Z,16.90
2023-08-27T10:53:25.844Z,16.90
2023-08-27T10:58:23.598Z,17.00
2023-08-27T11:03:17.199Z,17.10
2023-08-27T11:08:17.329Z,17.10
2023-08-27T11:13:38.853Z,17.20
2023-08-27T11:18:45.470Z,17.20
2023-08-27T11:23:39.406Z,17.30
2023-08-27T11:28:37.353Z,17.40
2023-08-27T11:33:39.530Z,17.50
2023-08-27T11:38:35.555Z,17.50
2023-08-27T11:43:30.564Z,17.60
2023-08-27T11:48:23.931Z,17.60
2023-08-27T11:53:21.292Z,17.60
2023-08-27T11:58:16.277Z,17.70
2023-08-27T12:03:09.783Z,17.70
2023-08-27T12:08:08.573Z,17.70
2023-08-27T12:13:03.442Z,17.70
2023-08-27T12:17:56.891Z,17.60
2023-08-27T12:22:50.181Z,17.70
2023-08-27T12:27:43.595Z,17.70
2023-08-27T12:32:38.392Z,17.70
2023-08-27T12:37:31.794Z,17.80
2023-08-27T12:42:26.584Z,17.80
2023-08-27T12:47:20.204Z,17.80
2023-08-27T12:52:15.272Z,17.90
2023-08-27T12:57:08.614Z,17.90
2023-08-27T13:02:02.008Z,17.90
2023-08-27T13:06:55.411Z,18.00
2023-08-27T13:11:50.261Z,17.90
2023-08-27T13:16:45.948Z,17.80
2023-08-27T13:21:41.314Z,17.70
2023-08-27T13:26:36.171Z,17.70
2023-08-27T13:31:31.016Z,17.60
2023-08-27T13:36:24.402Z,17.60
2023-08-27T13:41:17.965Z,17.50
2023-08-27T13:46:11.428Z,17.50
2023-08-27T13:51:06.459Z,17.40
2023-08-27T13:55:59.839Z,17.40
2023-08-27T14:00:53.289Z,17.40
2023-08-27T14:05:46.772Z,17.50
2023-08-27T14:10:41.568Z,17.60
2023-08-27T14:15:35.143Z,17.50
2023-08-27T14:20:30.134Z,17.50
2023-08-27T14:25:23.742Z,17.40
2023-08-27T14:30:18.646Z,17.40
2023-08-27T14:35:12.047Z,17.40
2023-08-27T14:40:06.155Z,17.30
2023-08-27T14:44:59.526Z,17.10
2023-08-27T14:49:54.258Z,17.10
2023-08-27T14:54:47.837Z,17.20
2023-08-27T14:59:43.436Z,17.30
2023-08-27T15:04:37.421Z,17.40
2023-08-27T15:09:32.573Z,17.40
2023-08-27T15:14:26.023Z,17.20
2023-08-27T15:19:20.170Z,17.10
2023-08-27T15:24:13.758Z,17.10
2023-08-27T15:29:08.970Z,17.10
2023-08-27T15:34:02.560Z,17.10
2023-08-27T15:38:55.877Z,17.00
2023-08-27T15:43:49.653Z,17.00
2023-08-27T15:48:44.387Z,17.00
2023-08-27T15:53:37.761Z,16.90
2023-08-27T15:58:31.075Z,16.80
2023-08-27T16:03:24.686Z,16.80
2023-08-27T16:08:21.041Z,16.80
2023-08-27T16:13:14.459Z,16.80
2023-08-27T16:18:08.154Z,16.80
2023-08-27T16:23:01.527Z,16.70
2023-08-27T16:27:56.271Z,16.80
2023-08-27T16:32:52.506Z,16.70
2023-08-27T16:37:46.743Z,16.60
2023-08-27T16:42:40.078Z,16.60
2023-08-27T16:47:34.890Z,16.60
2023-08-27T16:52:28.324Z,16.60
2023-08-27T16:57:21.640Z,16.70
2023-08-27T17:02:17.996Z,16.70
2023-08-27T17:07:12.756Z,16.80
2023-08-27T17:12:09.560Z,16.80
2023-08-27T17:17:02.964Z,16.70
2023-08-27T17:21:56.270Z,16.70
2023-08-27T17:26:50.987Z,16.70
2023-08-27T17:31:44.304Z,16.60
2023-08-27T17:36:37.688Z,16.60
2023-08-27T17:41:32.637Z,16.50
2023-08-27T17:46:27.517Z,16.50
2023-08-27T17:51:20.928Z,16.50
2023-08-27T17:56:14.259Z,16.50
2023-08-27T18:01:07.656Z,16.50
2023-08-27T18:06:06.582Z,16.40
2023-08-27T18:10:59.885Z,16.30
2023-08-27T18:15:56.825Z,16.20
2023-08-27T18:20:50.406Z,16.30
2023-08-27T18:25:45.151Z,16.30
2023-08-27T18:30:41.203Z,16.20
2023-08-27T18:35:34.702Z,16.30
2023-08-27T18:40:28.134Z,16.20
2023-08-27T18:45:24.114Z,16.20
2023-08-27T18:50:18.358Z,16.20
2023-08-27T18:55:11.725Z,16.10
2023-08-27T19:00:06.297Z,16.10
2023-08-27T19:05:01.202Z,16.10
2023-08-27T19:09:54.692Z,16.10
2023-08-27T19:14:47.985Z,16.10
2023-08-27T19:19:41.500Z,16.10
2023-08-27T19:24:36.186Z,16.10
2023-08-27T19:29:30.300Z,16.10
2023-08-27T19:34:23.588Z,16.10
2023-08-27T19:39:17.238Z,16.00
2023-08-27T19:44:12.031Z,16.00
2023-08-27T19:49:06.158Z,16.00
2023-08-27T19:53:59.524Z,16.00
2023-08-27T19:58:52.872Z,16.00
2023-08-27T20:03:47.905Z,16.00
2023-08-27T20:08:41.441Z,16.00
2023-08-27T20:13:34.817Z,15.90
2023-08-27T20:18:28.401Z,15.90
2023-08-27T20:23:25.939Z,15.90
2023-08-27T20:28:19.922Z,15.90
2023-08-27T20:33:13.260Z,15.90
2023-08-27T20:38:07.289Z,15.90
2023-08-27T20:43:02.457Z,15.80
2023-08-27T20:47:55.978Z,15.80
2023-08-27T20:52:49.453Z,15.80
2023-08-27T20:57:42.752Z,15.80
2023-08-27T21:02:37.479Z,15.80
2023-08-27T21:07:30.803Z,15.80
2023-08-27T21:12:24.118Z,15.90
2023-08-27T21:17:17.709Z,15.80
2023-08-27T21:22:12.335Z,15.80
2023-08-27T21:27:06.097Z,15.80
2023-08-27T21:31:59.458Z,15.80
2023-08-27T21:36:53.418Z,15.80
2023-08-27T21:41:48.156Z,15.80
2023-08-27T21:46:41.412Z,15.80
2023-08-27T21:51:34.690Z,15.80
2023-08-27T21:56:27.940Z,15.70
2023-08-27T22:01:23.640Z,15.70
2023-08-27T22:06:17.131Z,15.80
2023-08-27T22:11:10.402Z,15.70
2023-08-27T22:16:03.712Z,15.70
2023-08-27T22:21:00.576Z,15.70
2023-08-27T22:25:53.982Z,15.80
2023-08-27T22:30:47.373Z,15.70
2023-08-27T22:35:40.655Z,15.70
2023-08-27T22:40:35.306Z,15.60
2023-08-27T22:45:28.553Z,15.70
2023-08-27T22:50:21.840Z,15.70
2023-08-27T22:55:15.135Z,15.60
2023-08-27T23:00:11.574Z,15.60
2023-08-27T23:05:05.184Z,15.60
2023-08-27T23:09:58.523Z,15.60
2023-08-27T23:14:51.856Z,15.60
2023-08-27T23:19:46.740Z,15.60
2023-08-27T23:24:42.444Z,15.60
2023-08-27T23:29:35.738Z,15.50
2023-08-27T23:34:29.011Z,15.60
2023-08-27T23:39:26.676Z,15.60
2023-08-27T23:44:19.990Z,15.60
2023-08-27T23:49:13.294Z,15.50
2023-08-27T23:54:06.871Z,15.60
2023-08-27T23:59:01.515Z,15.50
